sensor_id;sensor_type;location;lat;lon;timestamp;temperature;humidity
65472;DHT22;52068;50.710;14.492;2023-08-06T00:00:49;23.21;55.35
65472;DHT22;52068;50.710;14.492;2023-08-06T00:03:15;23.21;55.33
65472;DHT22;52068;50.710;14.492;2023-08-06T00:05:43;23.23;55.34
65472;DHT22;52068;50.710;14.492;2023-08-06T00:08:08;23.21;55.35
65472;DHT22;52068;50.710;14.492;2023-08-06T00:10:34;23.21;55.35
65472;DHT22;52068;50.710;14.492;2023-08-06T00:12:59;23.23;55.30
65472;DHT22;52068;50.710;14.492;2023-08-06T00:15:24;23.20;55.29
65472;DHT22;52068;50.710;14.492;2023-08-06T00:17:50;23.21;55.29
65472;DHT22;52068;50.710;14.492;2023-08-06T00:20:15;23.21;55.31
65472;DHT22;52068;50.710;14.492;2023-08-06T00:22:41;23.18;55.23
65472;DHT22;52068;50.710;14.492;2023-08-06T00:25:06;23.20;55.20
65472;DHT22;52068;50.710;14.492;2023-08-06T00:27:32;23.21;55.19
65472;DHT22;52068;50.710;14.492;2023-08-06T00:30:00;23.23;55.21
65472;DHT22;52068;50.710;14.492;2023-08-06T00:32:26;23.21;55.21
65472;DHT22;52068;50.710;14.492;2023-08-06T00:34:51;23.21;55.20
65472;DHT22;52068;50.710;14.492;2023-08-06T00:37:17;23.20;55.17
65472;DHT22;52068;50.710;14.492;2023-08-06T00:39:43;23.20;55.22
65472;DHT22;52068;50.710;14.492;2023-08-06T00:42:09;23.21;55.23
65472;DHT22;52068;50.710;14.492;2023-08-06T00:44:35;23.18;55.19
65472;DHT22;52068;50.710;14.492;2023-08-06T00:47:01;23.20;55.20
65472;DHT22;52068;50.710;14.492;2023-08-06T00:49:27;23.21;55.15
65472;DHT22;52068;50.710;14.492;2023-08-06T00:51:52;23.21;55.19
65472;DHT22;52068;50.710;14.492;2023-08-06T00:54:18;23.21;55.14
65472;DHT22;52068;50.710;14.492;2023-08-06T00:56:43;23.23;55.14
65472;DHT22;52068;50.710;14.492;2023-08-06T00:59:10;23.23;55.16
65472;DHT22;52068;50.710;14.492;2023-08-06T01:01:35;23.21;55.12
65472;DHT22;52068;50.710;14.492;2023-08-06T01:04:01;23.21;55.13
65472;DHT22;52068;50.710;14.492;2023-08-06T01:12:00;23.21;55.09
65472;DHT22;52068;50.710;14.492;2023-08-06T01:14:53;23.20;55.13
65472;DHT22;52068;50.710;14.492;2023-08-06T01:17:23;23.20;55.07
65472;DHT22;52068;50.710;14.492;2023-08-06T01:19:49;23.20;55.12
65472;DHT22;52068;50.710;14.492;2023-08-06T01:22:14;23.20;55.13
65472;DHT22;52068;50.710;14.492;2023-08-06T01:24:43;23.21;55.08
65472;DHT22;52068;50.710;14.492;2023-08-06T01:27:16;23.18;55.04
65472;DHT22;52068;50.710;14.492;2023-08-06T01:29:50;23.21;55.07
65472;DHT22;52068;50.710;14.492;2023-08-06T01:32:20;23.18;55.07
65472;DHT22;52068;50.710;14.492;2023-08-06T01:34:47;23.20;55.04
65472;DHT22;52068;50.710;14.492;2023-08-06T01:37:13;23.18;55.03
65472;DHT22;52068;50.710;14.492;2023-08-06T01:39:42;23.20;55.04
65472;DHT22;52068;50.710;14.492;2023-08-06T01:42:08;23.20;54.98
65472;DHT22;52068;50.710;14.492;2023-08-06T01:44:33;23.18;55.03
65472;DHT22;52068;50.710;14.492;2023-08-06T01:46:59;23.20;55.07
65472;DHT22;52068;50.710;14.492;2023-08-06T01:49:24;23.17;55.06
65472;DHT22;52068;50.710;14.492;2023-08-06T01:51:49;23.17;55.05
65472;DHT22;52068;50.710;14.492;2023-08-06T01:54:15;23.18;55.04
65472;DHT22;52068;50.710;14.492;2023-08-06T01:56:40;23.20;55.05
65472;DHT22;52068;50.710;14.492;2023-08-06T01:59:05;23.18;55.09
65472;DHT22;52068;50.710;14.492;2023-08-06T02:01:31;23.17;55.04
65472;DHT22;52068;50.710;14.492;2023-08-06T02:03:56;23.17;55.05
65472;DHT22;52068;50.710;14.492;2023-08-06T02:06:22;23.21;55.03
65472;DHT22;52068;50.710;14.492;2023-08-06T02:08:47;23.17;55.01
65472;DHT22;52068;50.710;14.492;2023-08-06T02:11:12;23.20;55.03
65472;DHT22;52068;50.710;14.492;2023-08-06T02:13:38;23.18;54.97
65472;DHT22;52068;50.710;14.492;2023-08-06T02:16:03;23.18;54.99
65472;DHT22;52068;50.710;14.492;2023-08-06T02:18:28;23.20;55.00
65472;DHT22;52068;50.710;14.492;2023-08-06T02:20:58;23.17;54.99
65472;DHT22;52068;50.710;14.492;2023-08-06T02:23:24;23.17;54.98
65472;DHT22;52068;50.710;14.492;2023-08-06T02:26:05;23.15;55.02
65472;DHT22;52068;50.710;14.492;2023-08-06T02:28:31;23.17;54.97
65472;DHT22;52068;50.710;14.492;2023-08-06T02:30:56;23.17;54.92
65472;DHT22;52068;50.710;14.492;2023-08-06T02:33:22;23.15;54.93
65472;DHT22;52068;50.710;14.492;2023-08-06T02:35:47;23.17;54.94
65472;DHT22;52068;50.710;14.492;2023-08-06T02:38:13;23.15;54.93
65472;DHT22;52068;50.710;14.492;2023-08-06T02:40:45;23.17;54.97
65472;DHT22;52068;50.710;14.492;2023-08-06T02:43:11;23.15;54.97
65472;DHT22;52068;50.710;14.492;2023-08-06T02:45:36;23.15;54.99
65472;DHT22;52068;50.710;14.492;2023-08-06T02:48:02;23.18;55.00
65472;DHT22;52068;50.710;14.492;2023-08-06T02:50:28;23.20;55.00
65472;DHT22;52068;50.710;14.492;2023-08-06T02:52:53;23.15;55.01
65472;DHT22;52068;50.710;14.492;2023-08-06T02:55:18;23.17;55.00
65472;DHT22;52068;50.710;14.492;2023-08-06T02:57:44;23.18;54.98
65472;DHT22;52068;50.710;14.492;2023-08-06T03:00:09;23.17;55.00
65472;DHT22;52068;50.710;14.492;2023-08-06T03:02:36;23.20;54.95
65472;DHT22;52068;50.710;14.492;2023-08-06T03:05:02;23.15;54.93
65472;DHT22;52068;50.710;14.492;2023-08-06T03:07:28;23.15;54.96
65472;DHT22;52068;50.710;14.492;2023-08-06T03:09:54;23.15;54.92
65472;DHT22;52068;50.710;14.492;2023-08-06T03:12:19;23.17;54.94
65472;DHT22;52068;50.710;14.492;2023-08-06T03:14:45;23.15;54.90
65472;DHT22;52068;50.710;14.492;2023-08-06T03:17:10;23.17;54.88
65472;DHT22;52068;50.710;14.492;2023-08-06T03:19:36;23.17;54.87
65472;DHT22;52068;50.710;14.492;2023-08-06T03:22:01;23.17;54.90
65472;DHT22;52068;50.710;14.492;2023-08-06T03:24:26;23.15;54.90
65472;DHT22;52068;50.710;14.492;2023-08-06T03:26:52;23.15;54.97
65472;DHT22;52068;50.710;14.492;2023-08-06T03:29:17;23.17;54.93
65472;DHT22;52068;50.710;14.492;2023-08-06T03:31:42;23.15;54.93
65472;DHT22;52068;50.710;14.492;2023-08-06T03:34:08;23.15;54.93
65472;DHT22;52068;50.710;14.492;2023-08-06T03:36:33;23.14;54.94
65472;DHT22;52068;50.710;14.492;2023-08-06T03:38:58;23.14;54.90
65472;DHT22;52068;50.710;14.492;2023-08-06T03:41:24;23.14;54.97
65472;DHT22;52068;50.710;14.492;2023-08-06T03:43:49;23.15;54.96
65472;DHT22;52068;50.710;14.492;2023-08-06T03:46:15;23.14;54.96
65472;DHT22;52068;50.710;14.492;2023-08-06T03:48:40;23.13;54.97
65472;DHT22;52068;50.710;14.492;2023-08-06T03:51:05;23.13;54.96
65472;DHT22;52068;50.710;14.492;2023-08-06T03:53:31;23.11;55.02
65472;DHT22;52068;50.710;14.492;2023-08-06T03:55:56;23.11;55.14
65472;DHT22;52068;50.710;14.492;2023-08-06T03:58:25;23.10;55.11
65472;DHT22;52068;50.710;14.492;2023-08-06T04:00:58;23.10;55.07
65472;DHT22;52068;50.710;14.492;2023-08-06T04:03:23;23.07;55.07
65472;DHT22;52068;50.710;14.492;2023-08-06T04:05:49;23.08;55.07
65472;DHT22;52068;50.710;14.492;2023-08-06T04:08:14;23.11;55.09
65472;DHT22;52068;50.710;14.492;2023-08-06T04:10:39;23.11;55.09
65472;DHT22;52068;50.710;14.492;2023-08-06T04:13:05;23.10;55.07
65472;DHT22;52068;50.710;14.492;2023-08-06T04:15:33;23.08;55.07
65472;DHT22;52068;50.710;14.492;2023-08-06T04:17:59;23.06;55.06
65472;DHT22;52068;50.710;14.492;2023-08-06T04:20:24;23.10;55.13
65472;DHT22;52068;50.710;14.492;2023-08-06T04:22:50;23.08;55.09
65472;DHT22;52068;50.710;14.492;2023-08-06T04:25:15;23.10;55.06
65472;DHT22;52068;50.710;14.492;2023-08-06T04:27:48;23.08;55.04
65472;DHT22;52068;50.710;14.492;2023-08-06T04:30:13;23.10;55.05
65472;DHT22;52068;50.710;14.492;2023-08-06T04:32:39;23.10;55.02
65472;DHT22;52068;50.710;14.492;2023-08-06T04:35:05;23.07;55.05
65472;DHT22;52068;50.710;14.492;2023-08-06T04:37:31;23.10;55.03
65472;DHT22;52068;50.710;14.492;2023-08-06T04:39:56;23.10;55.02
65472;DHT22;52068;50.710;14.492;2023-08-06T04:42:22;23.11;55.04
65472;DHT22;52068;50.710;14.492;2023-08-06T04:44:47;23.07;55.05
65472;DHT22;52068;50.710;14.492;2023-08-06T04:47:12;23.06;55.11
65472;DHT22;52068;50.710;14.492;2023-08-06T04:49:38;23.00;55.03
65472;DHT22;52068;50.710;14.492;2023-08-06T04:52:03;22.99;55.19
65472;DHT22;52068;50.710;14.492;2023-08-06T04:54:29;22.93;55.16
65472;DHT22;52068;50.710;14.492;2023-08-06T04:56:54;22.90;55.42
65472;DHT22;52068;50.710;14.492;2023-08-06T04:59:20;22.87;55.35
65472;DHT22;52068;50.710;14.492;2023-08-06T05:01:45;22.82;55.59
65472;DHT22;52068;50.710;14.492;2023-08-06T05:04:10;22.79;55.59
65472;DHT22;52068;50.710;14.492;2023-08-06T05:06:36;22.74;55.69
65472;DHT22;52068;50.710;14.492;2023-08-06T05:09:03;22.70;55.84
65472;DHT22;52068;50.710;14.492;2023-08-06T05:11:29;22.66;55.98
65472;DHT22;52068;50.710;14.492;2023-08-06T05:13:55;22.64;56.00
65472;DHT22;52068;50.710;14.492;2023-08-06T05:16:20;22.60;56.06
65472;DHT22;52068;50.710;14.492;2023-08-06T05:18:46;22.57;56.20
65472;DHT22;52068;50.710;14.492;2023-08-06T05:21:11;22.55;56.28
65472;DHT22;52068;50.710;14.492;2023-08-06T05:23:36;22.52;56.44
65472;DHT22;52068;50.710;14.492;2023-08-06T05:26:02;22.51;56.49
65472;DHT22;52068;50.710;14.492;2023-08-06T05:28:27;22.46;56.53
65472;DHT22;52068;50.710;14.492;2023-08-06T05:30:53;22.43;56.59
65472;DHT22;52068;50.710;14.492;2023-08-06T05:33:18;22.43;56.71
65472;DHT22;52068;50.710;14.492;2023-08-06T05:35:44;22.38;56.91
65472;DHT22;52068;50.710;14.492;2023-08-06T05:38:09;22.38;56.90
65472;DHT22;52068;50.710;14.492;2023-08-06T05:40:34;22.31;57.03
65472;DHT22;52068;50.710;14.492;2023-08-06T05:43:00;22.31;57.06
65472;DHT22;52068;50.710;14.492;2023-08-06T05:45:25;22.28;57.22
65472;DHT22;52068;50.710;14.492;2023-08-06T05:47:50;22.26;57.23
65472;DHT22;52068;50.710;14.492;2023-08-06T05:50:16;22.25;57.48
65472;DHT22;52068;50.710;14.492;2023-08-06T05:52:42;22.22;57.46
65472;DHT22;52068;50.710;14.492;2023-08-06T05:55:07;22.21;57.55
65472;DHT22;52068;50.710;14.492;2023-08-06T05:57:33;22.19;57.54
65472;DHT22;52068;50.710;14.492;2023-08-06T05:59:58;22.19;57.62
65472;DHT22;52068;50.710;14.492;2023-08-06T06:02:24;22.16;57.76
65472;DHT22;52068;50.710;14.492;2023-08-06T06:04:49;22.16;57.77
65472;DHT22;52068;50.710;14.492;2023-08-06T06:07:14;22.15;57.83
65472;DHT22;52068;50.710;14.492;2023-08-06T06:09:40;22.14;57.85
65472;DHT22;52068;50.710;14.492;2023-08-06T06:12:06;22.12;57.94
65472;DHT22;52068;50.710;14.492;2023-08-06T06:14:31;22.11;58.09
65472;DHT22;52068;50.710;14.492;2023-08-06T06:16:57;22.12;58.18
65472;DHT22;52068;50.710;14.492;2023-08-06T06:19:22;22.09;58.22
65472;DHT22;52068;50.710;14.492;2023-08-06T06:21:47;22.06;58.21
65472;DHT22;52068;50.710;14.492;2023-08-06T06:24:13;22.09;58.26
65472;DHT22;52068;50.710;14.492;2023-08-06T06:26:38;22.06;58.29
65472;DHT22;52068;50.710;14.492;2023-08-06T06:29:04;22.05;58.35
65472;DHT22;52068;50.710;14.492;2023-08-06T06:31:29;22.05;58.49
65472;DHT22;52068;50.710;14.492;2023-08-06T06:33:55;22.04;58.56
65472;DHT22;52068;50.710;14.492;2023-08-06T06:36:20;22.05;58.50
65472;DHT22;52068;50.710;14.492;2023-08-06T06:38:46;22.05;58.48
65472;DHT22;52068;50.710;14.492;2023-08-06T06:41:11;22.08;58.40
65472;DHT22;52068;50.710;14.492;2023-08-06T06:43:37;22.05;58.41
65472;DHT22;52068;50.710;14.492;2023-08-06T06:46:04;22.08;58.28
65472;DHT22;52068;50.710;14.492;2023-08-06T06:48:32;22.11;58.13
65472;DHT22;52068;50.710;14.492;2023-08-06T06:50:57;22.15;58.18
65472;DHT22;52068;50.710;14.492;2023-08-06T06:53:23;22.24;58.49
65472;DHT22;52068;50.710;14.492;2023-08-06T06:55:53;22.28;58.48
65472;DHT22;52068;50.710;14.492;2023-08-06T06:58:19;22.33;58.50
65472;DHT22;52068;50.710;14.492;2023-08-06T07:00:45;22.38;58.39
65472;DHT22;52068;50.710;14.492;2023-08-06T07:03:11;22.41;58.40
65472;DHT22;52068;50.710;14.492;2023-08-06T07:05:36;22.43;58.30
65472;DHT22;52068;50.710;14.492;2023-08-06T07:08:01;22.43;58.27
65472;DHT22;52068;50.710;14.492;2023-08-06T07:10:27;22.48;58.00
65472;DHT22;52068;50.710;14.492;2023-08-06T07:12:52;22.52;57.89
65472;DHT22;52068;50.710;14.492;2023-08-06T07:15:17;22.56;58.04
65472;DHT22;52068;50.710;14.492;2023-08-06T07:17:43;22.57;58.05
65472;DHT22;52068;50.710;14.492;2023-08-06T07:20:09;22.59;58.23
65472;DHT22;52068;50.710;14.492;2023-08-06T07:22:35;22.62;58.17
65472;DHT22;52068;50.710;14.492;2023-08-06T07:25:01;22.66;58.05
65472;DHT22;52068;50.710;14.492;2023-08-06T07:27:26;22.69;57.80
65472;DHT22;52068;50.710;14.492;2023-08-06T07:29:51;22.66;57.74
65472;DHT22;52068;50.710;14.492;2023-08-06T07:32:17;22.72;57.49
65472;DHT22;52068;50.710;14.492;2023-08-06T07:34:42;22.70;57.47
65472;DHT22;52068;50.710;14.492;2023-08-06T07:37:07;22.73;57.33
65472;DHT22;52068;50.710;14.492;2023-08-06T07:39:33;22.76;57.35
65472;DHT22;52068;50.710;14.492;2023-08-06T07:41:58;22.77;57.23
65472;DHT22;52068;50.710;14.492;2023-08-06T07:44:24;22.80;57.20
65472;DHT22;52068;50.710;14.492;2023-08-06T07:46:49;22.80;57.10
65472;DHT22;52068;50.710;14.492;2023-08-06T07:49:15;22.83;57.08
65472;DHT22;52068;50.710;14.492;2023-08-06T07:51:40;22.83;57.02
65472;DHT22;52068;50.710;14.492;2023-08-06T07:54:06;22.84;57.01
65472;DHT22;52068;50.710;14.492;2023-08-06T07:56:32;22.87;57.11
65472;DHT22;52068;50.710;14.492;2023-08-06T07:58:57;22.89;56.96
65472;DHT22;52068;50.710;14.492;2023-08-06T08:01:22;22.87;57.08
65472;DHT22;52068;50.710;14.492;2023-08-06T08:03:48;22.87;57.05
65472;DHT22;52068;50.710;14.492;2023-08-06T08:06:13;22.89;56.99
65472;DHT22;52068;50.710;14.492;2023-08-06T08:08:38;22.92;56.71
65472;DHT22;52068;50.710;14.492;2023-08-06T08:11:05;22.92;56.75
65472;DHT22;52068;50.710;14.492;2023-08-06T08:13:30;22.90;56.58
65472;DHT22;52068;50.710;14.492;2023-08-06T08:15:59;22.87;56.61
65472;DHT22;52068;50.710;14.492;2023-08-06T08:18:24;22.86;56.95
65472;DHT22;52068;50.710;14.492;2023-08-06T08:20:50;22.82;56.99
65472;DHT22;52068;50.710;14.492;2023-08-06T08:23:15;22.79;56.85
65472;DHT22;52068;50.710;14.492;2023-08-06T08:25:41;22.76;57.07
65472;DHT22;52068;50.710;14.492;2023-08-06T08:28:07;22.76;57.09
65472;DHT22;52068;50.710;14.492;2023-08-06T08:30:32;22.69;57.19
65472;DHT22;52068;50.710;14.492;2023-08-06T08:32:57;22.69;57.18
65472;DHT22;52068;50.710;14.492;2023-08-06T08:35:23;22.72;57.20
65472;DHT22;52068;50.710;14.492;2023-08-06T08:37:48;22.72;57.05
65472;DHT22;52068;50.710;14.492;2023-08-06T08:40:14;22.74;56.84
65472;DHT22;52068;50.710;14.492;2023-08-06T08:42:40;22.77;56.67
65472;DHT22;52068;50.710;14.492;2023-08-06T08:45:11;22.82;56.62
65472;DHT22;52068;50.710;14.492;2023-08-06T08:47:37;22.86;56.64
65472;DHT22;52068;50.710;14.492;2023-08-06T08:50:05;22.89;56.69
65472;DHT22;52068;50.710;14.492;2023-08-06T08:52:31;22.93;56.68
65472;DHT22;52068;50.710;14.492;2023-08-06T08:55:01;22.93;56.63
65472;DHT22;52068;50.710;14.492;2023-08-06T08:57:26;22.96;56.61
65472;DHT22;52068;50.710;14.492;2023-08-06T08:59:52;23.00;56.63
65472;DHT22;52068;50.710;14.492;2023-08-06T09:02:17;23.00;56.66
65472;DHT22;52068;50.710;14.492;2023-08-06T09:04:44;23.03;56.71
65472;DHT22;52068;50.710;14.492;2023-08-06T09:07:13;23.06;56.74
65472;DHT22;52068;50.710;14.492;2023-08-06T09:09:43;23.04;56.77
65472;DHT22;52068;50.710;14.492;2023-08-06T09:12:14;23.06;56.78
65472;DHT22;52068;50.710;14.492;2023-08-06T09:14:39;23.07;56.76
65472;DHT22;52068;50.710;14.492;2023-08-06T09:17:05;23.10;56.72
65472;DHT22;52068;50.710;14.492;2023-08-06T09:19:31;23.10;56.68
65472;DHT22;52068;50.710;14.492;2023-08-06T09:21:57;23.11;56.64
65472;DHT22;52068;50.710;14.492;2023-08-06T09:24:23;23.14;56.65
65472;DHT22;52068;50.710;14.492;2023-08-06T09:26:48;23.11;56.58
65472;DHT22;52068;50.710;14.492;2023-08-06T09:29:14;23.14;56.66
65472;DHT22;52068;50.710;14.492;2023-08-06T09:31:47;23.13;56.63
65472;DHT22;52068;50.710;14.492;2023-08-06T09:34:21;23.13;56.62
65472;DHT22;52068;50.710;14.492;2023-08-06T09:36:51;23.15;56.59
65472;DHT22;52068;50.710;14.492;2023-08-06T09:39:19;23.15;56.71
65472;DHT22;52068;50.710;14.492;2023-08-06T09:41:45;23.15;56.77
65472;DHT22;52068;50.710;14.492;2023-08-06T09:44:20;23.17;56.89
65472;DHT22;52068;50.710;14.492;2023-08-06T09:46:50;23.17;56.76
65472;DHT22;52068;50.710;14.492;2023-08-06T09:49:20;23.15;56.55
65472;DHT22;52068;50.710;14.492;2023-08-06T09:51:47;23.18;56.53
65472;DHT22;52068;50.710;14.492;2023-08-06T09:54:16;23.17;56.57
65472;DHT22;52068;50.710;14.492;2023-08-06T09:56:42;23.15;56.33
65472;DHT22;52068;50.710;14.492;2023-08-06T09:59:08;23.18;56.28
65472;DHT22;52068;50.710;14.492;2023-08-06T10:01:35;23.18;56.20
65472;DHT22;52068;50.710;14.492;2023-08-06T10:04:03;23.17;56.14
65472;DHT22;52068;50.710;14.492;2023-08-06T10:06:29;23.18;56.16
65472;DHT22;52068;50.710;14.492;2023-08-06T10:08:54;23.21;56.17
65472;DHT22;52068;50.710;14.492;2023-08-06T10:11:24;23.21;56.12
65472;DHT22;52068;50.710;14.492;2023-08-06T10:13:55;23.20;56.11
65472;DHT22;52068;50.710;14.492;2023-08-06T10:16:22;23.23;56.14
65472;DHT22;52068;50.710;14.492;2023-08-06T10:18:49;23.23;56.23
65472;DHT22;52068;50.710;14.492;2023-08-06T10:21:14;23.24;56.21
65472;DHT22;52068;50.710;14.492;2023-08-06T10:23:41;23.25;56.20
65472;DHT22;52068;50.710;14.492;2023-08-06T10:26:07;23.25;56.24
65472;DHT22;52068;50.710;14.492;2023-08-06T10:28:37;23.27;56.16
65472;DHT22;52068;50.710;14.492;2023-08-06T10:31:04;23.28;56.05
65472;DHT22;52068;50.710;14.492;2023-08-06T10:33:42;23.27;56.01
65472;DHT22;52068;50.710;14.492;2023-08-06T10:36:11;23.28;55.91
65472;DHT22;52068;50.710;14.492;2023-08-06T10:38:47;23.27;55.96
65472;DHT22;52068;50.710;14.492;2023-08-06T10:41:21;23.28;55.95
65472;DHT22;52068;50.710;14.492;2023-08-06T10:43:47;23.28;55.92
65472;DHT22;52068;50.710;14.492;2023-08-06T10:46:26;23.28;56.16
65472;DHT22;52068;50.710;14.492;2023-08-06T10:48:52;23.30;56.12
65472;DHT22;52068;50.710;14.492;2023-08-06T10:51:17;23.33;56.04
65472;DHT22;52068;50.710;14.492;2023-08-06T10:53:44;23.33;55.99
65472;DHT22;52068;50.710;14.492;2023-08-06T10:56:14;23.34;55.99
65472;DHT22;52068;50.710;14.492;2023-08-06T10:58:41;23.35;55.95
65472;DHT22;52068;50.710;14.492;2023-08-06T11:01:06;23.37;55.93
65472;DHT22;52068;50.710;14.492;2023-08-06T11:03:35;23.38;55.90
65472;DHT22;52068;50.710;14.492;2023-08-06T11:06:01;23.40;55.85
65472;DHT22;52068;50.710;14.492;2023-08-06T11:08:32;23.41;55.83
65472;DHT22;52068;50.710;14.492;2023-08-06T11:11:08;23.41;55.77
65472;DHT22;52068;50.710;14.492;2023-08-06T11:13:36;23.43;55.71
65472;DHT22;52068;50.710;14.492;2023-08-06T11:16:01;23.44;55.66
65472;DHT22;52068;50.710;14.492;2023-08-06T11:18:27;23.44;55.66
65472;DHT22;52068;50.710;14.492;2023-08-06T11:20:53;23.45;55.65
65472;DHT22;52068;50.710;14.492;2023-08-06T11:23:19;23.48;55.58
65472;DHT22;52068;50.710;14.492;2023-08-06T11:25:45;23.47;55.58
65472;DHT22;52068;50.710;14.492;2023-08-06T11:28:11;23.51;55.49
65472;DHT22;52068;50.710;14.492;2023-08-06T11:30:37;23.51;55.49
65472;DHT22;52068;50.710;14.492;2023-08-06T11:33:03;23.51;55.41
65472;DHT22;52068;50.710;14.492;2023-08-06T11:35:28;23.51;55.40
65472;DHT22;52068;50.710;14.492;2023-08-06T11:37:54;23.51;55.42
65472;DHT22;52068;50.710;14.492;2023-08-06T11:40:20;23.57;55.42
65472;DHT22;52068;50.710;14.492;2023-08-06T11:42:46;23.55;55.39
65472;DHT22;52068;50.710;14.492;2023-08-06T11:45:12;23.58;55.47
65472;DHT22;52068;50.710;14.492;2023-08-06T11:47:40;23.55;55.50
65472;DHT22;52068;50.710;14.492;2023-08-06T11:50:06;23.58;55.45
65472;DHT22;52068;50.710;14.492;2023-08-06T11:52:32;23.61;55.45
65472;DHT22;52068;50.710;14.492;2023-08-06T11:55:04;23.61;55.44
65472;DHT22;52068;50.710;14.492;2023-08-06T11:57:39;23.59;55.38
65472;DHT22;52068;50.710;14.492;2023-08-06T12:00:12;23.61;55.35
65472;DHT22;52068;50.710;14.492;2023-08-06T12:02:42;23.65;55.32
65472;DHT22;52068;50.710;14.492;2023-08-06T12:07:39;23.64;55.32
65472;DHT22;52068;50.710;14.492;2023-08-06T12:10:05;23.64;55.43
65472;DHT22;52068;50.710;14.492;2023-08-06T12:12:31;23.65;55.35
65472;DHT22;52068;50.710;14.492;2023-08-06T12:14:56;23.65;55.41
65472;DHT22;52068;50.710;14.492;2023-08-06T12:17:22;23.66;55.38
65472;DHT22;52068;50.710;14.492;2023-08-06T12:19:48;23.66;55.44
65472;DHT22;52068;50.710;14.492;2023-08-06T12:22:14;23.68;55.55
65472;DHT22;52068;50.710;14.492;2023-08-06T12:24:43;23.69;55.56
65472;DHT22;52068;50.710;14.492;2023-08-06T12:27:10;23.68;55.63
65472;DHT22;52068;50.710;14.492;2023-08-06T12:29:36;23.71;55.63
65472;DHT22;52068;50.710;14.492;2023-08-06T12:32:03;23.68;55.66
65472;DHT22;52068;50.710;14.492;2023-08-06T12:34:28;23.68;55.63
65472;DHT22;52068;50.710;14.492;2023-08-06T12:36:54;23.72;55.64
65472;DHT22;52068;50.710;14.492;2023-08-06T12:39:19;23.72;55.63
65472;DHT22;52068;50.710;14.492;2023-08-06T12:41:45;23.71;55.61
65472;DHT22;52068;50.710;14.492;2023-08-06T12:44:14;23.74;55.70
65472;DHT22;52068;50.710;14.492;2023-08-06T12:46:39;23.65;55.63
65472;DHT22;52068;50.710;14.492;2023-08-06T12:49:06;23.57;55.86
65472;DHT22;52068;50.710;14.492;2023-08-06T12:51:32;23.52;56.29
65472;DHT22;52068;50.710;14.492;2023-08-06T12:53:59;23.48;55.99
65472;DHT22;52068;50.710;14.492;2023-08-06T12:56:24;23.45;56.16
65472;DHT22;52068;50.710;14.492;2023-08-06T12:58:49;23.43;56.43
65472;DHT22;52068;50.710;14.492;2023-08-06T13:01:15;23.40;56.46
65472;DHT22;52068;50.710;14.492;2023-08-06T13:03:40;23.35;56.44
65472;DHT22;52068;50.710;14.492;2023-08-06T13:06:05;23.33;56.47
65472;DHT22;52068;50.710;14.492;2023-08-06T13:08:31;23.28;56.77
65472;DHT22;52068;50.710;14.492;2023-08-06T13:10:56;23.30;56.92
65472;DHT22;52068;50.710;14.492;2023-08-06T13:13:21;23.17;56.63
65472;DHT22;52068;50.710;14.492;2023-08-06T13:15:47;23.10;56.99
65472;DHT22;52068;50.710;14.492;2023-08-06T13:18:13;23.06;57.35
65472;DHT22;52068;50.710;14.492;2023-08-06T13:20:39;23.00;57.32
65472;DHT22;52068;50.710;14.492;2023-08-06T13:23:07;22.99;57.79
65472;DHT22;52068;50.710;14.492;2023-08-06T13:25:32;22.96;57.74
65472;DHT22;52068;50.710;14.492;2023-08-06T13:28:02;22.96;57.86
65472;DHT22;52068;50.710;14.492;2023-08-06T13:30:28;22.96;57.59
65472;DHT22;52068;50.710;14.492;2023-08-06T13:32:53;22.92;57.48
65472;DHT22;52068;50.710;14.492;2023-08-06T13:35:20;22.93;57.33
65472;DHT22;52068;50.710;14.492;2023-08-06T13:37:46;22.92;57.52
65472;DHT22;52068;50.710;14.492;2023-08-06T13:40:13;22.92;57.60
65472;DHT22;52068;50.710;14.492;2023-08-06T13:42:38;22.89;57.59
65472;DHT22;52068;50.710;14.492;2023-08-06T13:45:05;22.87;57.75
65472;DHT22;52068;50.710;14.492;2023-08-06T13:47:31;22.89;57.47
65472;DHT22;52068;50.710;14.492;2023-08-06T13:49:56;22.87;57.13
65472;DHT22;52068;50.710;14.492;2023-08-06T13:52:22;22.83;57.51
65472;DHT22;52068;50.710;14.492;2023-08-06T13:54:47;22.84;57.78
65472;DHT22;52068;50.710;14.492;2023-08-06T13:57:13;22.82;57.82
65472;DHT22;52068;50.710;14.492;2023-08-06T13:59:38;22.79;57.73
65472;DHT22;52068;50.710;14.492;2023-08-06T14:02:03;22.80;57.77
65472;DHT22;52068;50.710;14.492;2023-08-06T14:04:29;22.76;57.87
65472;DHT22;52068;50.710;14.492;2023-08-06T14:06:54;22.76;57.80
65472;DHT22;52068;50.710;14.492;2023-08-06T14:09:20;22.76;57.73
65472;DHT22;52068;50.710;14.492;2023-08-06T14:11:45;22.74;57.91
65472;DHT22;52068;50.710;14.492;2023-08-06T14:14:11;22.74;57.42
65472;DHT22;52068;50.710;14.492;2023-08-06T14:16:36;22.69;57.04
65472;DHT22;52068;50.710;14.492;2023-08-06T14:19:03;22.57;55.82
65472;DHT22;52068;50.710;14.492;2023-08-06T14:21:28;22.45;56.85
65472;DHT22;52068;50.710;14.492;2023-08-06T14:23:53;22.43;57.04
65472;DHT22;52068;50.710;14.492;2023-08-06T14:26:19;22.41;57.00
65472;DHT22;52068;50.710;14.492;2023-08-06T14:28:44;22.45;57.24
65472;DHT22;52068;50.710;14.492;2023-08-06T14:31:11;22.48;57.24
65472;DHT22;52068;50.710;14.492;2023-08-06T14:33:36;22.48;56.94
65472;DHT22;52068;50.710;14.492;2023-08-06T14:36:02;22.51;57.00
65472;DHT22;52068;50.710;14.492;2023-08-06T14:38:27;22.48;56.66
65472;DHT22;52068;50.710;14.492;2023-08-06T14:40:53;22.48;56.68
65472;DHT22;52068;50.710;14.492;2023-08-06T14:43:18;22.49;56.62
65472;DHT22;52068;50.710;14.492;2023-08-06T14:45:45;22.46;56.76
65472;DHT22;52068;50.710;14.492;2023-08-06T14:48:10;22.43;56.75
65472;DHT22;52068;50.710;14.492;2023-08-06T14:50:35;22.39;56.84
65472;DHT22;52068;50.710;14.492;2023-08-06T14:53:02;22.41;56.99
65472;DHT22;52068;50.710;14.492;2023-08-06T14:55:28;22.41;56.94
65472;DHT22;52068;50.710;14.492;2023-08-06T14:57:53;22.29;57.19
65472;DHT22;52068;50.710;14.492;2023-08-06T15:00:19;22.26;57.44
65472;DHT22;52068;50.710;14.492;2023-08-06T15:02:45;22.26;57.92
65472;DHT22;52068;50.710;14.492;2023-08-06T15:05:11;22.29;57.58
65472;DHT22;52068;50.710;14.492;2023-08-06T15:07:36;22.25;57.80
65472;DHT22;52068;50.710;14.492;2023-08-06T15:10:03;22.22;57.94
65472;DHT22;52068;50.710;14.492;2023-08-06T15:12:29;22.28;57.96
65472;DHT22;52068;50.710;14.492;2023-08-06T15:14:54;22.22;58.30
65472;DHT22;52068;50.710;14.492;2023-08-06T15:17:22;22.21;58.37